<?xml version='1.0' encoding='UTF-8'?><gpx version="1.1" creator="JPX - https://github.com/jenetics/jpx" xmlns="http://www.topografix.com/GPX/1/1"><trk><trkseg><trkpt lat="46.6030789" lon="12.4791899"><ele>1199.0</ele><time>2026-04-16T17:15:29.284Z</time></trkpt><trkpt lat="46.6032304" lon="12.479223"><ele>1199.0</ele><time>2026-04-16T17:15:35.283Z</time></trkpt><trkpt lat="46.6032963" lon="12.4792075"><ele>1199.0</ele><time>2026-04-16T17:15:37.283Z</time></trkpt><trkpt lat="46.6033675" lon="12.4791183"><ele>1199.0</ele><time>2026-04-16T17:15:40.283Z</time></trkpt><trkpt lat="46.6034091" lon="12.4790334"><ele>1199.0</ele><time>2026-04-16T17:15:42.255Z</time></trkpt><trkpt lat="46.6034682" lon="12.4788706"><ele>1199.0</ele><time>2026-04-16T17:15:46.283Z</time></trkpt><trkpt lat="46.6035117" lon="12.4787718"><ele>1199.0</ele><time>2026-04-16T17:15:48.232Z</time></trkpt><trkpt lat="46.6035678" lon="12.4786994"><ele>1199.0</ele><time>2026-04-16T17:15:50.283Z</time></trkpt><trkpt lat="46.6036608" lon="12.4785817"><ele>1199.0</ele><time>2026-04-16T17:15:54.286Z</time></trkpt><trkpt lat="46.6037002" lon="12.4784828"><ele>1199.0</ele><time>2026-04-16T17:15:57.29Z</time></trkpt><trkpt lat="46.6037378" lon="12.4783809"><ele>1199.0</ele><time>2026-04-16T17:16:00.283Z</time></trkpt><trkpt lat="46.6037861" lon="12.4782819"><ele>1199.8333333333335</ele><time>2026-04-16T17:16:03.29Z</time></trkpt><trkpt lat="46.6038336" lon="12.4781826"><ele>1200.6666666666667</ele><time>2026-04-16T17:16:06.298Z</time></trkpt><trkpt lat="46.603887" lon="12.4780852"><ele>1201.5</ele><time>2026-04-16T17:16:09.302Z</time></trkpt><trkpt lat="46.603955" lon="12.4779838"><ele>1202.3333333333333</ele><time>2026-04-16T17:16:12.283Z</time></trkpt><trkpt lat="46.6039872" lon="12.477903"><ele>1203.1666666666665</ele><time>2026-04-16T17:16:14.294Z</time></trkpt><trkpt lat="46.6040342" lon="12.4777869"><ele>1204.0</ele><time>2026-04-16T17:16:17.287Z</time></trkpt><trkpt lat="46.604078" lon="12.4776833"><ele>1204.5</ele><time>2026-04-16T17:16:20.289Z</time></trkpt><trkpt lat="46.6041006" lon="12.4775681"><ele>1205.0</ele><time>2026-04-16T17:16:23.287Z</time></trkpt><trkpt lat="46.6041151" lon="12.4774433"><ele>1205.5</ele><time>2026-04-16T17:16:26.299Z</time></trkpt><trkpt lat="46.6040756" lon="12.4773098"><ele>1206.0</ele><time>2026-04-16T17:16:29.284Z</time></trkpt><trkpt lat="46.6040198" lon="12.4771994"><ele>1206.5</ele><time>2026-04-16T17:16:32.311Z</time></trkpt><trkpt lat="46.6039695" lon="12.4771331"><ele>1207.0</ele><time>2026-04-16T17:16:34.314Z</time></trkpt><trkpt lat="46.6039085" lon="12.477046"><ele>1208.0</ele><time>2026-04-16T17:16:37.229Z</time></trkpt><trkpt lat="46.6038526" lon="12.4769554"><ele>1209.0</ele><time>2026-04-16T17:16:40.315Z</time></trkpt><trkpt lat="46.6038052" lon="12.4768657"><ele>1210.0</ele><time>2026-04-16T17:16:43.29Z</time></trkpt><trkpt lat="46.6037547" lon="12.4767813"><ele>1211.0</ele><time>2026-04-16T17:16:46.292Z</time></trkpt><trkpt lat="46.6037013" lon="12.4766998"><ele>1212.0</ele><time>2026-04-16T17:16:49.29Z</time></trkpt><trkpt lat="46.6036429" lon="12.4766327"><ele>1213.0</ele><time>2026-04-16T17:16:52.292Z</time></trkpt><trkpt lat="46.6035959" lon="12.4765565"><ele>1213.2857142857144</ele><time>2026-04-16T17:16:55.303Z</time></trkpt><trkpt lat="46.6035466" lon="12.4764827"><ele>1213.5714285714284</ele><time>2026-04-16T17:16:58.299Z</time></trkpt><trkpt lat="46.6035006" lon="12.4763962"><ele>1213.857142857143</ele><time>2026-04-16T17:17:01.288Z</time></trkpt><trkpt lat="46.6034526" lon="12.4763158"><ele>1214.1428571428573</ele><time>2026-04-16T17:17:04.29Z</time></trkpt><trkpt lat="46.6034104" lon="12.4762318"><ele>1214.4285714285716</ele><time>2026-04-16T17:17:07.318Z</time></trkpt><trkpt lat="46.6033647" lon="12.4761635"><ele>1214.7142857142858</ele><time>2026-04-16T17:17:10.249Z</time></trkpt><trkpt lat="46.6033146" lon="12.4760914"><ele>1215.0</ele><time>2026-04-16T17:17:13.325Z</time></trkpt><trkpt lat="46.6032715" lon="12.476019"><ele>1216.8333333333333</ele><time>2026-04-16T17:17:16.279Z</time></trkpt><trkpt lat="46.6032097" lon="12.4759396"><ele>1218.6666666666667</ele><time>2026-04-16T17:17:20.308Z</time></trkpt><trkpt lat="46.6031583" lon="12.4758558"><ele>1220.5</ele><time>2026-04-16T17:17:24.289Z</time></trkpt><trkpt lat="46.6030859" lon="12.4757898"><ele>1222.3333333333335</ele><time>2026-04-16T17:17:28.295Z</time></trkpt><trkpt lat="46.6030309" lon="12.4757322"><ele>1224.1666666666667</ele><time>2026-04-16T17:17:31.302Z</time></trkpt><trkpt lat="46.6029823" lon="12.47567"><ele>1226.0</ele><time>2026-04-16T17:17:34.292Z</time></trkpt><trkpt lat="46.6029202" lon="12.4755846"><ele>1226.0</ele><time>2026-04-16T17:17:38.283Z</time></trkpt><trkpt lat="46.6028645" lon="12.4755299"><ele>1226.0</ele><time>2026-04-16T17:17:41.313Z</time></trkpt><trkpt lat="46.6028106" lon="12.4754452"><ele>1226.0</ele><time>2026-04-16T17:17:45.282Z</time></trkpt><trkpt lat="46.6027671" lon="12.4753738"><ele>1226.0</ele><time>2026-04-16T17:17:49.297Z</time></trkpt><trkpt lat="46.6027198" lon="12.4752936"><ele>1226.0</ele><time>2026-04-16T17:17:53.289Z</time></trkpt><trkpt lat="46.6026587" lon="12.4752476"><ele>1226.0</ele><time>2026-04-16T17:17:57.29Z</time></trkpt><trkpt lat="46.6025997" lon="12.4752094"><ele>1226.0</ele><time>2026-04-16T17:18:01.283Z</time></trkpt><trkpt lat="46.6025408" lon="12.4751694"><ele>1230.2857142857142</ele><time>2026-04-16T17:18:06.287Z</time></trkpt><trkpt lat="46.6024767" lon="12.4751371"><ele>1234.5714285714284</ele><time>2026-04-16T17:18:14.311Z</time></trkpt><trkpt lat="46.6024299" lon="12.4750578"><ele>1238.8571428571427</ele><time>2026-04-16T17:18:18.313Z</time></trkpt><trkpt lat="46.6023865" lon="12.4749652"><ele>1243.142857142857</ele><time>2026-04-16T17:18:22.299Z</time></trkpt><trkpt lat="46.6023419" lon="12.4748846"><ele>1247.4285714285713</ele><time>2026-04-16T17:18:26.283Z</time></trkpt><trkpt lat="46.602299" lon="12.4748079"><ele>1251.7142857142856</ele><time>2026-04-16T17:18:30.285Z</time></trkpt><trkpt lat="46.6022735" lon="12.4747072"><ele>1256.0</ele><time>2026-04-16T17:18:35.286Z</time></trkpt><trkpt lat="46.6022673" lon="12.474609"><ele>1257.7142857142856</ele><time>2026-04-16T17:18:43.32Z</time></trkpt><trkpt lat="46.602262" lon="12.4745102"><ele>1259.4285714285713</ele><time>2026-04-16T17:18:50.283Z</time></trkpt><trkpt lat="46.6022775" lon="12.4744066"><ele>1261.142857142857</ele><time>2026-04-16T17:18:55.295Z</time></trkpt><trkpt lat="46.6022851" lon="12.4742811"><ele>1262.8571428571427</ele><time>2026-04-16T17:18:59.299Z</time></trkpt><trkpt lat="46.6022765" lon="12.4741895"><ele>1264.5714285714284</ele><time>2026-04-16T17:19:02.285Z</time></trkpt><trkpt lat="46.6022562" lon="12.474091"><ele>1266.2857142857142</ele><time>2026-04-16T17:19:06.28Z</time></trkpt><trkpt lat="46.6022351" lon="12.4740041"><ele>1268.0</ele><time>2026-04-16T17:19:09.29Z</time></trkpt><trkpt lat="46.6022179" lon="12.4739098"><ele>1268.0</ele><time>2026-04-16T17:19:13.3Z</time></trkpt><trkpt lat="46.6021966" lon="12.4738135"><ele>1268.0</ele><time>2026-04-16T17:19:18.282Z</time></trkpt><trkpt lat="46.6021765" lon="12.4737244"><ele>1268.0</ele><time>2026-04-16T17:19:23.284Z</time></trkpt><trkpt lat="46.6021541" lon="12.4736359"><ele>1268.0</ele><time>2026-04-16T17:19:29.313Z</time></trkpt><trkpt lat="46.6021032" lon="12.4735611"><ele>1268.0</ele><time>2026-04-16T17:19:34.293Z</time></trkpt><trkpt lat="46.602043" lon="12.4735224"><ele>1268.0</ele><time>2026-04-16T17:19:39.311Z</time></trkpt><trkpt lat="46.6020075" lon="12.4734421"><ele>1268.0</ele><time>2026-04-16T17:19:44.288Z</time></trkpt><trkpt lat="46.6019896" lon="12.4733466"><ele>1274.7142857142858</ele><time>2026-04-16T17:19:51.309Z</time></trkpt><trkpt lat="46.6019881" lon="12.4732256"><ele>1281.4285714285713</ele><time>2026-04-16T17:19:57.284Z</time></trkpt><trkpt lat="46.6019832" lon="12.4731286"><ele>1288.142857142857</ele><time>2026-04-16T17:20:02.283Z</time></trkpt><trkpt lat="46.6019888" lon="12.4730273"><ele>1294.857142857143</ele><time>2026-04-16T17:20:07.298Z</time></trkpt><trkpt lat="46.6019961" lon="12.4729273"><ele>1301.5714285714287</ele><time>2026-04-16T17:20:14.236Z</time></trkpt><trkpt lat="46.6019986" lon="12.4728254"><ele>1308.2857142857142</ele><time>2026-04-16T17:20:20.293Z</time></trkpt><trkpt lat="46.6020029" lon="12.4727071"><ele>1315.0</ele><time>2026-04-16T17:20:27.306Z</time></trkpt><trkpt lat="46.6020052" lon="12.4726091"><ele>1315.7142857142858</ele><time>2026-04-16T17:20:33.286Z</time></trkpt><trkpt lat="46.6019991" lon="12.472512"><ele>1316.4285714285716</ele><time>2026-04-16T17:20:41.292Z</time></trkpt><trkpt lat="46.6020043" lon="12.4724122"><ele>1317.1428571428573</ele><time>2026-04-16T17:20:49.21Z</time></trkpt><trkpt lat="46.6020038" lon="12.4723084"><ele>1317.857142857143</ele><time>2026-04-16T17:20:57.289Z</time></trkpt><trkpt lat="46.601993" lon="12.4722074"><ele>1318.5714285714287</ele><time>2026-04-16T17:21:07.296Z</time></trkpt><trkpt lat="46.6020042" lon="12.4721149"><ele>1319.2857142857144</ele><time>2026-04-16T17:21:14.326Z</time></trkpt><trkpt lat="46.6020252" lon="12.4720166"><ele>1320.0</ele><time>2026-04-16T17:21:27.292Z</time></trkpt><trkpt lat="46.6020625" lon="12.4719385"><ele>1323.7142857142858</ele><time>2026-04-16T17:21:33.287Z</time></trkpt><trkpt lat="46.6020415" lon="12.4718449"><ele>1327.4285714285716</ele><time>2026-04-16T17:21:40.299Z</time></trkpt><trkpt lat="46.6020578" lon="12.471742"><ele>1331.1428571428573</ele><time>2026-04-16T17:21:53.282Z</time></trkpt><trkpt lat="46.6020568" lon="12.4716218"><ele>1334.857142857143</ele><time>2026-04-16T17:22:01.284Z</time></trkpt><trkpt lat="46.6020358" lon="12.4715217"><ele>1338.5714285714284</ele><time>2026-04-16T17:22:10.289Z</time></trkpt><trkpt lat="46.6020396" lon="12.4714229"><ele>1342.2857142857144</ele><time>2026-04-16T17:22:22.29Z</time></trkpt><trkpt lat="46.6020412" lon="12.471326"><ele>1346.0</ele><time>2026-04-16T17:22:32.284Z</time></trkpt><trkpt lat="46.6020323" lon="12.471217"><ele>1349.5714285714287</ele><time>2026-04-16T17:22:43.285Z</time></trkpt><trkpt lat="46.6020404" lon="12.4711178"><ele>1353.142857142857</ele><time>2026-04-16T17:22:53.283Z</time></trkpt><trkpt lat="46.60205" lon="12.4710227"><ele>1356.7142857142858</ele><time>2026-04-16T17:23:05.294Z</time></trkpt><trkpt lat="46.6020542" lon="12.4709289"><ele>1360.2857142857142</ele><time>2026-04-16T17:23:16.285Z</time></trkpt><trkpt lat="46.6020793" lon="12.4708423"><ele>1363.857142857143</ele><time>2026-04-16T17:23:26.29Z</time></trkpt><trkpt lat="46.6020948" lon="12.470748"><ele>1367.4285714285713</ele><time>2026-04-16T17:23:36.285Z</time></trkpt><trkpt lat="46.6020996" lon="12.4706526"><ele>1371.0</ele><time>2026-04-16T17:23:44.284Z</time></trkpt><trkpt lat="46.6021064" lon="12.4705611"><ele>1371.0</ele><time>2026-04-16T17:23:54.293Z</time></trkpt><trkpt lat="46.6021128" lon="12.4704599"><ele>1371.0</ele><time>2026-04-16T17:24:07.299Z</time></trkpt><trkpt lat="46.602116" lon="12.470362"><ele>1371.0</ele><time>2026-04-16T17:24:19.283Z</time></trkpt><trkpt lat="46.6021285" lon="12.4702613"><ele>1371.0</ele><time>2026-04-16T17:24:29.294Z</time></trkpt><trkpt lat="46.6021174" lon="12.4701678"><ele>1371.0</ele><time>2026-04-16T17:24:38.607Z</time></trkpt><trkpt lat="46.6021075" lon="12.4700712"><ele>1371.0</ele><time>2026-04-16T17:24:50.32Z</time></trkpt><trkpt lat="46.6021276" lon="12.4699759"><ele>1371.0</ele><time>2026-04-16T17:25:01.284Z</time></trkpt><trkpt lat="46.602151" lon="12.4698849"><ele>1374.2857142857142</ele><time>2026-04-16T17:25:12.291Z</time></trkpt><trkpt lat="46.6021237" lon="12.4697946"><ele>1377.5714285714287</ele><time>2026-04-16T17:25:24.29Z</time></trkpt><trkpt lat="46.6021075" lon="12.4697041"><ele>1380.857142857143</ele><time>2026-04-16T17:25:33.32Z</time></trkpt><trkpt lat="46.602106" lon="12.4695998"><ele>1384.142857142857</ele><time>2026-04-16T17:25:41.29Z</time></trkpt><trkpt lat="46.6021155" lon="12.4695049"><ele>1387.4285714285713</ele><time>2026-04-16T17:25:54.299Z</time></trkpt><trkpt lat="46.6021068" lon="12.4694125"><ele>1390.7142857142858</ele><time>2026-04-16T17:26:03.283Z</time></trkpt><trkpt lat="46.6021239" lon="12.4693159"><ele>1394.0</ele><time>2026-04-16T17:26:13.236Z</time></trkpt><trkpt lat="46.6021501" lon="12.4692176"><ele>1398.7142857142858</ele><time>2026-04-16T17:26:22.318Z</time></trkpt><trkpt lat="46.60217" lon="12.4691282"><ele>1403.4285714285713</ele><time>2026-04-16T17:26:31.289Z</time></trkpt><trkpt lat="46.6021875" lon="12.469038"><ele>1408.142857142857</ele><time>2026-04-16T17:26:36.292Z</time></trkpt><trkpt lat="46.6022054" lon="12.4689375"><ele>1412.857142857143</ele><time>2026-04-16T17:26:41.295Z</time></trkpt><trkpt lat="46.6022343" lon="12.4688541"><ele>1417.5714285714287</ele><time>2026-04-16T17:26:46.283Z</time></trkpt><trkpt lat="46.6022669" lon="12.4687595"><ele>1422.2857142857142</ele><time>2026-04-16T17:26:52.303Z</time></trkpt><trkpt lat="46.6022981" lon="12.4686733"><ele>1427.0</ele><time>2026-04-16T17:27:00.288Z</time></trkpt><trkpt lat="46.6023313" lon="12.4685943"><ele>1429.0</ele><time>2026-04-16T17:27:05.285Z</time></trkpt><trkpt lat="46.6023743" lon="12.4685222"><ele>1431.0</ele><time>2026-04-16T17:27:09.268Z</time></trkpt><trkpt lat="46.6024479" lon="12.4684789"><ele>1433.0</ele><time>2026-04-16T17:27:13.294Z</time></trkpt><trkpt lat="46.6024972" lon="12.4684138"><ele>1435.0</ele><time>2026-04-16T17:27:17.296Z</time></trkpt><trkpt lat="46.6025362" lon="12.4683188"><ele>1437.0</ele><time>2026-04-16T17:27:20.283Z</time></trkpt><trkpt lat="46.6025671" lon="12.4681992"><ele>1439.0</ele><time>2026-04-16T17:27:24.283Z</time></trkpt><trkpt lat="46.6025822" lon="12.4681085"><ele>1441.0</ele><time>2026-04-16T17:27:27.284Z</time></trkpt><trkpt lat="46.6026106" lon="12.4680263"><ele>1441.0</ele><time>2026-04-16T17:27:30.22Z</time></trkpt></trkseg></trk></gpx>